sensor_id;sensor_type;location;lat;lon;timestamp;temperature;humidity
21331;DHT22;10824;51.632;4.950;2023-07-02T00:00:32;18.00;1.00
21331;DHT22;10824;51.632;4.950;2023-07-02T00:03:03;18.00;1.00
21331;DHT22;10824;51.632;4.950;2023-07-02T00:05:36;17.90;1.00
21331;DHT22;10824;51.632;4.950;2023-07-02T00:08:17;17.90;1.00
21331;DHT22;10824;51.632;4.950;2023-07-02T00:10:45;17.90;1.00
21331;DHT22;10824;51.632;4.950;2023-07-02T00:13:42;17.90;1.00
21331;DHT22;10824;51.632;4.950;2023-07-02T00:16:54;17.80;1.00
21331;DHT22;10824;51.632;4.950;2023-07-02T00:19:28;17.80;1.00
21331;DHT22;10824;51.632;4.950;2023-07-02T00:25:52;17.80;1.00
21331;DHT22;10824;51.632;4.950;2023-07-02T00:28:19;17.80;1.00
21331;DHT22;10824;51.632;4.950;2023-07-02T00:30:46;17.80;1.00
21331;DHT22;10824;51.632;4.950;2023-07-02T00:36:52;17.70;2.90
21331;DHT22;10824;51.632;4.950;2023-07-02T00:39:20;17.70;48.20
21331;DHT22;10824;51.632;4.950;2023-07-02T00:41:47;17.70;99.90
21331;DHT22;10824;51.632;4.950;2023-07-02T00:44:20;17.70;99.90
21331;DHT22;10824;51.632;4.950;2023-07-02T00:46:55;17.70;99.90
21331;DHT22;10824;51.632;4.950;2023-07-02T00:49:31;17.70;99.90
21331;DHT22;10824;51.632;4.950;2023-07-02T00:51:59;17.70;99.90
21331;DHT22;10824;51.632;4.950;2023-07-02T00:54:30;17.70;99.90
21331;DHT22;10824;51.632;4.950;2023-07-02T00:56:57;17.60;99.90
21331;DHT22;10824;51.632;4.950;2023-07-02T00:59:30;17.60;99.90
21331;DHT22;10824;51.632;4.950;2023-07-02T01:01:58;17.70;99.90
21331;DHT22;10824;51.632;4.950;2023-07-02T01:04:32;17.70;99.90
21331;DHT22;10824;51.632;4.950;2023-07-02T01:07:02;17.60;99.90
21331;DHT22;10824;51.632;4.950;2023-07-02T01:09:36;17.60;99.90
21331;DHT22;10824;51.632;4.950;2023-07-02T01:12:08;17.60;4.50
21331;DHT22;10824;51.632;4.950;2023-07-02T01:14:41;17.60;1.00
21331;DHT22;10824;51.632;4.950;2023-07-02T01:17:22;17.70;1.00
21331;DHT22;10824;51.632;4.950;2023-07-02T01:20:07;17.60;1.00
21331;DHT22;10824;51.632;4.950;2023-07-02T01:22:36;17.70;99.90
21331;DHT22;10824;51.632;4.950;2023-07-02T01:25:06;17.70;99.90
21331;DHT22;10824;51.632;4.950;2023-07-02T01:28:08;17.60;99.90
21331;DHT22;10824;51.632;4.950;2023-07-02T01:30:38;17.50;99.90
21331;DHT22;10824;51.632;4.950;2023-07-02T01:33:09;17.50;99.90
21331;DHT22;10824;51.632;4.950;2023-07-02T01:35:37;17.50;1.00
21331;DHT22;10824;51.632;4.950;2023-07-02T01:38:05;17.50;1.00
21331;DHT22;10824;51.632;4.950;2023-07-02T01:40:48;17.50;99.90
21331;DHT22;10824;51.632;4.950;2023-07-02T01:43:19;17.50;99.90
21331;DHT22;10824;51.632;4.950;2023-07-02T01:45:46;17.60;99.90
21331;DHT22;10824;51.632;4.950;2023-07-02T01:48:15;17.50;1.00
21331;DHT22;10824;51.632;4.950;2023-07-02T01:50:54;17.50;1.00
21331;DHT22;10824;51.632;4.950;2023-07-02T01:53:59;17.50;1.00
21331;DHT22;10824;51.632;4.950;2023-07-02T01:56:32;17.50;99.90
21331;DHT22;10824;51.632;4.950;2023-07-02T01:59:09;17.40;99.90
21331;DHT22;10824;51.632;4.950;2023-07-02T02:02:11;17.40;99.90
21331;DHT22;10824;51.632;4.950;2023-07-02T02:04:42;17.40;99.90
21331;DHT22;10824;51.632;4.950;2023-07-02T02:07:10;17.30;99.90
21331;DHT22;10824;51.632;4.950;2023-07-02T02:09:38;17.30;99.90
21331;DHT22;10824;51.632;4.950;2023-07-02T02:12:06;17.30;99.90
21331;DHT22;10824;51.632;4.950;2023-07-02T02:14:33;17.30;99.90
21331;DHT22;10824;51.632;4.950;2023-07-02T02:17:00;17.20;99.90
21331;DHT22;10824;51.632;4.950;2023-07-02T02:19:27;17.20;99.90
21331;DHT22;10824;51.632;4.950;2023-07-02T02:21:54;17.20;99.90
21331;DHT22;10824;51.632;4.950;2023-07-02T02:24:21;17.10;99.90
21331;DHT22;10824;51.632;4.950;2023-07-02T02:26:48;17.00;99.90
21331;DHT22;10824;51.632;4.950;2023-07-02T02:29:15;17.00;99.90
21331;DHT22;10824;51.632;4.950;2023-07-02T02:31:43;17.00;99.90
21331;DHT22;10824;51.632;4.950;2023-07-02T03:18:13;16.60;99.90
21331;DHT22;10824;51.632;4.950;2023-07-02T03:29:34;16.40;99.90
21331;DHT22;10824;51.632;4.950;2023-07-02T03:36:03;16.30;99.90
21331;DHT22;10824;51.632;4.950;2023-07-02T03:38:30;16.40;99.90
21331;DHT22;10824;51.632;4.950;2023-07-02T03:44:54;16.40;99.90
21331;DHT22;10824;51.632;4.950;2023-07-02T03:51:10;16.30;99.90
21331;DHT22;10824;51.632;4.950;2023-07-02T03:53:42;16.30;99.90
21331;DHT22;10824;51.632;4.950;2023-07-02T03:56:12;16.20;99.90
21331;DHT22;10824;51.632;4.950;2023-07-02T03:58:40;16.20;99.90
21331;DHT22;10824;51.632;4.950;2023-07-02T04:01:07;16.20;99.90
21331;DHT22;10824;51.632;4.950;2023-07-02T04:03:48;16.20;99.90
21331;DHT22;10824;51.632;4.950;2023-07-02T04:06:19;16.20;99.90
21331;DHT22;10824;51.632;4.950;2023-07-02T04:08:46;16.20;99.90
21331;DHT22;10824;51.632;4.950;2023-07-02T04:11:13;16.20;99.90
21331;DHT22;10824;51.632;4.950;2023-07-02T04:13:41;16.20;99.90
21331;DHT22;10824;51.632;4.950;2023-07-02T04:16:08;16.30;99.90
21331;DHT22;10824;51.632;4.950;2023-07-02T04:18:37;16.30;99.90
21331;DHT22;10824;51.632;4.950;2023-07-02T04:21:09;16.30;99.90
21331;DHT22;10824;51.632;4.950;2023-07-02T04:28:21;16.30;99.90
21331;DHT22;10824;51.632;4.950;2023-07-02T04:30:57;16.30;99.90
21331;DHT22;10824;51.632;4.950;2023-07-02T04:33:33;16.40;99.90
21331;DHT22;10824;51.632;4.950;2023-07-02T04:36:06;16.40;99.90
21331;DHT22;10824;51.632;4.950;2023-07-02T04:38:35;16.40;99.90
21331;DHT22;10824;51.632;4.950;2023-07-02T04:41:30;16.40;99.90
21331;DHT22;10824;51.632;4.950;2023-07-02T04:44:23;16.50;99.90
21331;DHT22;10824;51.632;4.950;2023-07-02T04:47:00;16.50;99.90
21331;DHT22;10824;51.632;4.950;2023-07-02T04:49:30;16.50;99.90
21331;DHT22;10824;51.632;4.950;2023-07-02T04:52:11;16.40;99.90
21331;DHT22;10824;51.632;4.950;2023-07-02T04:54:46;16.40;99.90
21331;DHT22;10824;51.632;4.950;2023-07-02T04:57:22;16.40;99.90
21331;DHT22;10824;51.632;4.950;2023-07-02T05:00:18;16.40;99.90
21331;DHT22;10824;51.632;4.950;2023-07-02T05:02:56;16.40;99.90
21331;DHT22;10824;51.632;4.950;2023-07-02T05:05:46;16.50;99.90
21331;DHT22;10824;51.632;4.950;2023-07-02T05:08:59;16.50;99.90
21331;DHT22;10824;51.632;4.950;2023-07-02T05:12:04;16.50;99.90
21331;DHT22;10824;51.632;4.950;2023-07-02T05:14:37;16.60;99.90
21331;DHT22;10824;51.632;4.950;2023-07-02T05:17:10;16.60;99.90
21331;DHT22;10824;51.632;4.950;2023-07-02T05:24:33;16.60;99.90
21331;DHT22;10824;51.632;4.950;2023-07-02T05:31:05;16.70;99.90
21331;DHT22;10824;51.632;4.950;2023-07-02T05:33:57;16.70;99.90
21331;DHT22;10824;51.632;4.950;2023-07-02T05:36:27;16.70;99.90
21331;DHT22;10824;51.632;4.950;2023-07-02T05:39:28;16.70;99.90
21331;DHT22;10824;51.632;4.950;2023-07-02T05:42:42;16.70;99.90
21331;DHT22;10824;51.632;4.950;2023-07-02T05:45:49;16.80;99.90
21331;DHT22;10824;51.632;4.950;2023-07-02T05:48:40;16.80;99.90
21331;DHT22;10824;51.632;4.950;2023-07-02T05:52:23;16.80;99.90
21331;DHT22;10824;51.632;4.950;2023-07-02T05:59:05;16.90;99.90
21331;DHT22;10824;51.632;4.950;2023-07-02T06:04:55;16.90;99.90
21331;DHT22;10824;51.632;4.950;2023-07-02T06:07:37;17.00;99.90
21331;DHT22;10824;51.632;4.950;2023-07-02T06:10:09;17.00;99.90
21331;DHT22;10824;51.632;4.950;2023-07-02T06:12:49;17.10;99.90
21331;DHT22;10824;51.632;4.950;2023-07-02T06:18:32;17.20;99.90
21331;DHT22;10824;51.632;4.950;2023-07-02T06:21:00;17.10;99.90
21331;DHT22;10824;51.632;4.950;2023-07-02T06:23:27;17.20;99.90
21331;DHT22;10824;51.632;4.950;2023-07-02T06:26:00;17.30;99.90
21331;DHT22;10824;51.632;4.950;2023-07-02T06:28:35;17.20;99.90
21331;DHT22;10824;51.632;4.950;2023-07-02T06:31:02;17.30;99.90
21331;DHT22;10824;51.632;4.950;2023-07-02T06:33:29;17.40;99.90
21331;DHT22;10824;51.632;4.950;2023-07-02T06:35:58;17.40;99.90
21331;DHT22;10824;51.632;4.950;2023-07-02T06:38:25;17.30;99.90
21331;DHT22;10824;51.632;4.950;2023-07-02T06:40:52;17.30;99.90
21331;DHT22;10824;51.632;4.950;2023-07-02T06:43:19;17.40;99.90
21331;DHT22;10824;51.632;4.950;2023-07-02T06:45:46;17.30;99.90
21331;DHT22;10824;51.632;4.950;2023-07-02T06:48:14;17.40;99.90
21331;DHT22;10824;51.632;4.950;2023-07-02T06:50:48;17.40;99.90
21331;DHT22;10824;51.632;4.950;2023-07-02T06:53:16;17.40;99.90
21331;DHT22;10824;51.632;4.950;2023-07-02T06:55:43;17.50;99.90
21331;DHT22;10824;51.632;4.950;2023-07-02T06:58:10;17.60;99.90
21331;DHT22;10824;51.632;4.950;2023-07-02T07:00:37;17.40;99.90
21331;DHT22;10824;51.632;4.950;2023-07-02T07:03:05;17.50;99.90
21331;DHT22;10824;51.632;4.950;2023-07-02T07:05:32;17.50;99.90
21331;DHT22;10824;51.632;4.950;2023-07-02T07:08:00;17.60;99.90
21331;DHT22;10824;51.632;4.950;2023-07-02T07:10:28;17.70;99.90
21331;DHT22;10824;51.632;4.950;2023-07-02T07:12:55;17.60;99.90
21331;DHT22;10824;51.632;4.950;2023-07-02T07:15:22;17.50;99.90
21331;DHT22;10824;51.632;4.950;2023-07-02T07:17:51;17.60;99.90
21331;DHT22;10824;51.632;4.950;2023-07-02T07:20:24;17.50;90.20
21331;DHT22;10824;51.632;4.950;2023-07-02T07:22:51;17.60;82.50
21331;DHT22;10824;51.632;4.950;2023-07-02T07:25:21;17.60;52.60
21331;DHT22;10824;51.632;4.950;2023-07-02T07:28:28;17.60;36.50
21331;DHT22;10824;51.632;4.950;2023-07-02T07:35:01;17.70;19.60
21331;DHT22;10824;51.632;4.950;2023-07-02T07:38:09;17.70;14.10
21331;DHT22;10824;51.632;4.950;2023-07-02T07:40:37;17.60;1.00
21331;DHT22;10824;51.632;4.950;2023-07-02T07:46:35;17.60;1.00
21331;DHT22;10824;51.632;4.950;2023-07-02T07:49:04;17.70;1.00
21331;DHT22;10824;51.632;4.950;2023-07-02T07:51:41;17.80;1.00
21331;DHT22;10824;51.632;4.950;2023-07-02T07:54:08;18.00;1.00
21331;DHT22;10824;51.632;4.950;2023-07-02T07:56:36;17.80;1.00
21331;DHT22;10824;51.632;4.950;2023-07-02T07:59:03;17.90;1.00
21331;DHT22;10824;51.632;4.950;2023-07-02T08:01:30;18.10;1.00
21331;DHT22;10824;51.632;4.950;2023-07-02T08:04:10;18.00;1.00
21331;DHT22;10824;51.632;4.950;2023-07-02T08:10:57;18.00;1.00
21331;DHT22;10824;51.632;4.950;2023-07-02T08:13:25;18.00;1.00
21331;DHT22;10824;51.632;4.950;2023-07-02T08:16:06;18.10;1.00
21331;DHT22;10824;51.632;4.950;2023-07-02T08:18:39;17.90;1.00
21331;DHT22;10824;51.632;4.950;2023-07-02T08:21:07;18.20;1.00
21331;DHT22;10824;51.632;4.950;2023-07-02T08:27:09;18.40;1.00
21331;DHT22;10824;51.632;4.950;2023-07-02T08:29:37;18.40;1.00
21331;DHT22;10824;51.632;4.950;2023-07-02T08:32:13;18.60;1.00
21331;DHT22;10824;51.632;4.950;2023-07-02T08:34:56;18.70;1.00
21331;DHT22;10824;51.632;4.950;2023-07-02T08:37:42;18.70;1.00
21331;DHT22;10824;51.632;4.950;2023-07-02T08:40:16;18.80;1.00
21331;DHT22;10824;51.632;4.950;2023-07-02T08:42:46;18.80;1.00
21331;DHT22;10824;51.632;4.950;2023-07-02T08:45:16;18.60;1.00
21331;DHT22;10824;51.632;4.950;2023-07-02T08:47:44;18.40;1.00
21331;DHT22;10824;51.632;4.950;2023-07-02T08:50:14;18.40;1.00
21331;DHT22;10824;51.632;4.950;2023-07-02T08:52:42;18.40;1.00
21331;DHT22;10824;51.632;4.950;2023-07-02T08:55:12;18.40;1.00
21331;DHT22;10824;51.632;4.950;2023-07-02T08:58:05;18.30;1.00
21331;DHT22;10824;51.632;4.950;2023-07-02T09:00:33;18.60;1.00
21331;DHT22;10824;51.632;4.950;2023-07-02T09:03:16;18.70;1.00
21331;DHT22;10824;51.632;4.950;2023-07-02T09:05:51;18.70;1.00
21331;DHT22;10824;51.632;4.950;2023-07-02T09:08:28;18.90;1.00
21331;DHT22;10824;51.632;4.950;2023-07-02T09:13:52;18.90;1.00
21331;DHT22;10824;51.632;4.950;2023-07-02T09:16:31;18.50;1.00
21331;DHT22;10824;51.632;4.950;2023-07-02T09:19:03;18.40;1.00
21331;DHT22;10824;51.632;4.950;2023-07-02T09:24:20;18.30;1.00
21331;DHT22;10824;51.632;4.950;2023-07-02T09:26:50;18.20;1.00
21331;DHT22;10824;51.632;4.950;2023-07-02T09:29:37;18.30;1.00
21331;DHT22;10824;51.632;4.950;2023-07-02T09:32:05;18.50;1.00
21331;DHT22;10824;51.632;4.950;2023-07-02T09:34:40;18.40;1.00
21331;DHT22;10824;51.632;4.950;2023-07-02T09:37:09;18.40;1.00
21331;DHT22;10824;51.632;4.950;2023-07-02T09:39:36;18.30;1.00
21331;DHT22;10824;51.632;4.950;2023-07-02T09:42:06;18.10;1.00
21331;DHT22;10824;51.632;4.950;2023-07-02T09:44:34;18.30;1.00
21331;DHT22;10824;51.632;4.950;2023-07-02T09:47:07;18.20;1.00
21331;DHT22;10824;51.632;4.950;2023-07-02T09:49:46;18.20;1.00
21331;DHT22;10824;51.632;4.950;2023-07-02T09:52:16;18.40;1.00
21331;DHT22;10824;51.632;4.950;2023-07-02T09:54:44;18.70;1.00
21331;DHT22;10824;51.632;4.950;2023-07-02T09:57:11;18.80;1.00
21331;DHT22;10824;51.632;4.950;2023-07-02T09:59:39;18.80;1.00
21331;DHT22;10824;51.632;4.950;2023-07-02T10:02:09;18.90;1.00
21331;DHT22;10824;51.632;4.950;2023-07-02T10:04:46;18.90;1.00
21331;DHT22;10824;51.632;4.950;2023-07-02T10:07:30;19.10;1.00
21331;DHT22;10824;51.632;4.950;2023-07-02T10:09:58;19.30;1.00
21331;DHT22;10824;51.632;4.950;2023-07-02T10:12:29;19.40;1.00
21331;DHT22;10824;51.632;4.950;2023-07-02T10:14:57;19.40;1.00
21331;DHT22;10824;51.632;4.950;2023-07-02T10:17:35;19.40;1.00
21331;DHT22;10824;51.632;4.950;2023-07-02T10:20:08;19.20;1.00
21331;DHT22;10824;51.632;4.950;2023-07-02T10:22:49;19.30;1.00
21331;DHT22;10824;51.632;4.950;2023-07-02T10:25:25;19.20;1.00
21331;DHT22;10824;51.632;4.950;2023-07-02T10:27:53;19.20;1.00
21331;DHT22;10824;51.632;4.950;2023-07-02T10:30:34;19.20;1.00
21331;DHT22;10824;51.632;4.950;2023-07-02T10:33:16;18.90;1.00
21331;DHT22;10824;51.632;4.950;2023-07-02T10:35:45;19.20;1.00
21331;DHT22;10824;51.632;4.950;2023-07-02T10:40:43;19.80;1.00
21331;DHT22;10824;51.632;4.950;2023-07-02T10:43:10;20.00;1.00
21331;DHT22;10824;51.632;4.950;2023-07-02T10:45:40;20.00;1.00
21331;DHT22;10824;51.632;4.950;2023-07-02T10:48:10;20.20;1.00
21331;DHT22;10824;51.632;4.950;2023-07-02T10:50:40;20.20;1.00
21331;DHT22;10824;51.632;4.950;2023-07-02T10:53:17;19.90;1.00
21331;DHT22;10824;51.632;4.950;2023-07-02T10:55:45;19.90;1.00
21331;DHT22;10824;51.632;4.950;2023-07-02T10:58:42;20.20;1.00
21331;DHT22;10824;51.632;4.950;2023-07-02T11:01:10;20.40;1.00
21331;DHT22;10824;51.632;4.950;2023-07-02T11:03:42;20.40;1.00
21331;DHT22;10824;51.632;4.950;2023-07-02T11:06:15;20.40;1.00
21331;DHT22;10824;51.632;4.950;2023-07-02T11:09:03;20.80;1.00
21331;DHT22;10824;51.632;4.950;2023-07-02T11:11:31;20.20;1.00
21331;DHT22;10824;51.632;4.950;2023-07-02T11:18:44;20.80;1.00
21331;DHT22;10824;51.632;4.950;2023-07-02T11:22:07;20.60;1.00
21331;DHT22;10824;51.632;4.950;2023-07-02T11:24:35;20.70;1.00
21331;DHT22;10824;51.632;4.950;2023-07-02T11:27:08;21.20;1.00
21331;DHT22;10824;51.632;4.950;2023-07-02T11:29:47;20.80;1.00
21331;DHT22;10824;51.632;4.950;2023-07-02T11:32:17;20.80;1.00
21331;DHT22;10824;51.632;4.950;2023-07-02T11:34:56;20.10;1.00
21331;DHT22;10824;51.632;4.950;2023-07-02T11:38:15;20.50;1.00
21331;DHT22;10824;51.632;4.950;2023-07-02T11:40:42;20.40;1.00
21331;DHT22;10824;51.632;4.950;2023-07-02T11:43:28;20.20;1.00
21331;DHT22;10824;51.632;4.950;2023-07-02T11:46:42;20.50;1.00
21331;DHT22;10824;51.632;4.950;2023-07-02T11:49:10;20.40;1.00
21331;DHT22;10824;51.632;4.950;2023-07-02T11:51:38;20.50;1.00
21331;DHT22;10824;51.632;4.950;2023-07-02T11:54:13;20.40;1.00
21331;DHT22;10824;51.632;4.950;2023-07-02T11:57:12;20.80;1.00
21331;DHT22;10824;51.632;4.950;2023-07-02T12:34:11;20.90;1.00
21331;DHT22;10824;51.632;4.950;2023-07-02T12:36:50;21.00;1.00
21331;DHT22;10824;51.632;4.950;2023-07-02T12:39:29;21.10;1.00
21331;DHT22;10824;51.632;4.950;2023-07-02T12:42:07;20.80;1.00
21331;DHT22;10824;51.632;4.950;2023-07-02T12:44:48;20.60;1.00
21331;DHT22;10824;51.632;4.950;2023-07-02T12:47:19;20.60;1.00
21331;DHT22;10824;51.632;4.950;2023-07-02T12:49:51;20.50;1.00
21331;DHT22;10824;51.632;4.950;2023-07-02T12:52:44;20.40;1.00
21331;DHT22;10824;51.632;4.950;2023-07-02T12:55:20;20.50;1.00
21331;DHT22;10824;51.632;4.950;2023-07-02T12:58:22;20.70;1.00
21331;DHT22;10824;51.632;4.950;2023-07-02T13:01:01;20.70;1.00
21331;DHT22;10824;51.632;4.950;2023-07-02T13:04:00;21.30;1.00
21331;DHT22;10824;51.632;4.950;2023-07-02T13:06:51;21.60;1.00
21331;DHT22;10824;51.632;4.950;2023-07-02T13:09:49;21.00;1.00
21331;DHT22;10824;51.632;4.950;2023-07-02T13:21:45;21.10;1.00
21331;DHT22;10824;51.632;4.950;2023-07-02T13:24:38;22.10;1.00
21331;DHT22;10824;51.632;4.950;2023-07-02T13:27:16;22.20;1.00
21331;DHT22;10824;51.632;4.950;2023-07-02T13:29:48;22.50;1.00
21331;DHT22;10824;51.632;4.950;2023-07-02T13:32:19;22.60;1.00
21331;DHT22;10824;51.632;4.950;2023-07-02T13:34:50;22.10;1.00
21331;DHT22;10824;51.632;4.950;2023-07-02T13:37:21;21.90;1.00
21331;DHT22;10824;51.632;4.950;2023-07-02T13:40:00;21.50;1.00
21331;DHT22;10824;51.632;4.950;2023-07-02T13:42:34;21.70;1.00
21331;DHT22;10824;51.632;4.950;2023-07-02T13:45:08;21.50;1.00
21331;DHT22;10824;51.632;4.950;2023-07-02T13:47:42;21.30;1.00
21331;DHT22;10824;51.632;4.950;2023-07-02T13:50:23;21.20;1.00
21331;DHT22;10824;51.632;4.950;2023-07-02T13:52:58;21.60;1.00
21331;DHT22;10824;51.632;4.950;2023-07-02T13:55:50;21.40;1.00
21331;DHT22;10824;51.632;4.950;2023-07-02T13:58:25;21.20;1.00
21331;DHT22;10824;51.632;4.950;2023-07-02T14:00:59;21.30;1.00
21331;DHT22;10824;51.632;4.950;2023-07-02T14:04:03;21.30;1.00
21331;DHT22;10824;51.632;4.950;2023-07-02T14:06:42;21.30;1.00
21331;DHT22;10824;51.632;4.950;2023-07-02T14:13:35;22.00;1.00
21331;DHT22;10824;51.632;4.950;2023-07-02T14:17:14;22.20;1.00
21331;DHT22;10824;51.632;4.950;2023-07-02T14:20:38;22.20;1.00
21331;DHT22;10824;51.632;4.950;2023-07-02T14:23:14;22.10;1.00
21331;DHT22;10824;51.632;4.950;2023-07-02T14:25:44;21.90;99.90
21331;DHT22;10824;51.632;4.950;2023-07-02T14:28:17;21.80;99.90
21331;DHT22;10824;51.632;4.950;2023-07-02T14:31:23;22.30;1.00
21331;DHT22;10824;51.632;4.950;2023-07-02T14:34:47;22.30;99.90
21331;DHT22;10824;51.632;4.950;2023-07-02T14:37:15;21.60;99.90
21331;DHT22;10824;51.632;4.950;2023-07-02T14:39:42;21.90;99.90
21331;DHT22;10824;51.632;4.950;2023-07-02T14:42:23;22.20;99.90
21331;DHT22;10824;51.632;4.950;2023-07-02T14:44:53;22.10;99.90
21331;DHT22;10824;51.632;4.950;2023-07-02T14:47:24;22.40;99.90
21331;DHT22;10824;51.632;4.950;2023-07-02T14:49:52;22.40;99.90
21331;DHT22;10824;51.632;4.950;2023-07-02T14:52:20;22.50;1.00
21331;DHT22;10824;51.632;4.950;2023-07-02T14:54:55;22.60;99.90
21331;DHT22;10824;51.632;4.950;2023-07-02T14:57:25;22.70;99.90
21331;DHT22;10824;51.632;4.950;2023-07-02T14:59:53;21.80;99.90
21331;DHT22;10824;51.632;4.950;2023-07-02T15:02:26;22.20;1.40
21331;DHT22;10824;51.632;4.950;2023-07-02T15:05:01;22.40;99.90
21331;DHT22;10824;51.632;4.950;2023-07-02T15:07:30;22.50;99.90
21331;DHT22;10824;51.632;4.950;2023-07-02T15:10:01;22.50;99.90
21331;DHT22;10824;51.632;4.950;2023-07-02T15:12:30;22.40;99.90
21331;DHT22;10824;51.632;4.950;2023-07-02T15:15:03;22.30;99.90
21331;DHT22;10824;51.632;4.950;2023-07-02T15:17:36;22.80;99.90
21331;DHT22;10824;51.632;4.950;2023-07-02T15:20:19;22.70;99.90
21331;DHT22;10824;51.632;4.950;2023-07-02T15:22:57;22.70;99.90
21331;DHT22;10824;51.632;4.950;2023-07-02T15:25:43;22.70;99.90
21331;DHT22;10824;51.632;4.950;2023-07-02T15:28:19;23.20;99.90
21331;DHT22;10824;51.632;4.950;2023-07-02T15:31:11;23.30;99.90
21331;DHT22;10824;51.632;4.950;2023-07-02T15:33:51;23.00;99.90
21331;DHT22;10824;51.632;4.950;2023-07-02T15:36:59;22.60;99.90
21331;DHT22;10824;51.632;4.950;2023-07-02T15:39:50;22.60;99.90
21331;DHT22;10824;51.632;4.950;2023-07-02T15:42:30;23.10;99.90
21331;DHT22;10824;51.632;4.950;2023-07-02T15:45:01;22.80;99.90
21331;DHT22;10824;51.632;4.950;2023-07-02T15:48:44;22.30;99.90
21331;DHT22;10824;51.632;4.950;2023-07-02T15:51:35;22.50;99.90
21331;DHT22;10824;51.632;4.950;2023-07-02T15:57:41;22.20;99.90
21331;DHT22;10824;51.632;4.950;2023-07-02T16:08:30;22.00;99.90
21331;DHT22;10824;51.632;4.950;2023-07-02T16:11:26;22.00;99.90
21331;DHT22;10824;51.632;4.950;2023-07-02T16:14:20;22.10;99.90
21331;DHT22;10824;51.632;4.950;2023-07-02T16:16:56;21.90;99.90
21331;DHT22;10824;51.632;4.950;2023-07-02T16:19:27;22.00;99.90
21331;DHT22;10824;51.632;4.950;2023-07-02T16:21:59;21.80;99.90
21331;DHT22;10824;51.632;4.950;2023-07-02T16:24:37;21.80;99.90
21331;DHT22;10824;51.632;4.950;2023-07-02T16:27:11;21.70;99.90
21331;DHT22;10824;51.632;4.950;2023-07-02T16:29:41;21.70;99.90
21331;DHT22;10824;51.632;4.950;2023-07-02T16:32:24;21.80;99.90
21331;DHT22;10824;51.632;4.950;2023-07-02T16:34:55;21.70;99.90
21331;DHT22;10824;51.632;4.950;2023-07-02T16:37:29;21.80;99.90
21331;DHT22;10824;51.632;4.950;2023-07-02T16:40:28;21.50;1.40
21331;DHT22;10824;51.632;4.950;2023-07-02T16:43:08;21.50;1.00
21331;DHT22;10824;51.632;4.950;2023-07-02T16:45:54;21.60;1.40
21331;DHT22;10824;51.632;4.950;2023-07-02T16:48:44;21.40;1.00
21331;DHT22;10824;51.632;4.950;2023-07-02T16:51:12;21.40;1.00
21331;DHT22;10824;51.632;4.950;2023-07-02T16:53:44;21.60;1.00
21331;DHT22;10824;51.632;4.950;2023-07-02T16:56:12;21.60;1.00
21331;DHT22;10824;51.632;4.950;2023-07-02T16:58:44;21.50;1.00
21331;DHT22;10824;51.632;4.950;2023-07-02T17:01:12;21.50;1.00
21331;DHT22;10824;51.632;4.950;2023-07-02T17:03:45;21.40;1.00
21331;DHT22;10824;51.632;4.950;2023-07-02T17:06:22;21.40;1.00
21331;DHT22;10824;51.632;4.950;2023-07-02T17:09:21;21.70;1.00
21331;DHT22;10824;51.632;4.950;2023-07-02T17:12:08;21.90;1.00
21331;DHT22;10824;51.632;4.950;2023-07-02T17:14:49;21.80;1.00
21331;DHT22;10824;51.632;4.950;2023-07-02T17:17:23;21.50;1.00
21331;DHT22;10824;51.632;4.950;2023-07-02T17:19:57;21.30;1.00
21331;DHT22;10824;51.632;4.950;2023-07-02T17:22:32;21.50;1.00
21331;DHT22;10824;51.632;4.950;2023-07-02T17:25:03;21.20;1.00
21331;DHT22;10824;51.632;4.950;2023-07-02T17:27:32;20.90;1.00
21331;DHT22;10824;51.632;4.950;2023-07-02T17:30:03;21.00;1.00
21331;DHT22;10824;51.632;4.950;2023-07-02T17:32:57;21.10;1.00
21331;DHT22;10824;51.632;4.950;2023-07-02T17:35:43;21.10;1.00
21331;DHT22;10824;51.632;4.950;2023-07-02T17:38:18;21.20;1.00
21331;DHT22;10824;51.632;4.950;2023-07-02T17:41:22;21.10;1.00
21331;DHT22;10824;51.632;4.950;2023-07-02T17:43:49;20.90;1.00
21331;DHT22;10824;51.632;4.950;2023-07-02T17:46:26;20.70;1.00
21331;DHT22;10824;51.632;4.950;2023-07-02T17:48:54;20.80;1.00
21331;DHT22;10824;51.632;4.950;2023-07-02T17:51:25;20.80;1.00
21331;DHT22;10824;51.632;4.950;2023-07-02T17:53:54;20.80;1.00
21331;DHT22;10824;51.632;4.950;2023-07-02T17:56:25;20.70;1.00
21331;DHT22;10824;51.632;4.950;2023-07-02T17:58:56;20.60;1.00
21331;DHT22;10824;51.632;4.950;2023-07-02T18:01:28;20.70;1.00
21331;DHT22;10824;51.632;4.950;2023-07-02T18:04:31;20.70;1.00
21331;DHT22;10824;51.632;4.950;2023-07-02T18:07:20;20.60;1.00
21331;DHT22;10824;51.632;4.950;2023-07-02T18:10:32;20.70;1.00
21331;DHT22;10824;51.632;4.950;2023-07-02T18:13:43;20.70;1.00
21331;DHT22;10824;51.632;4.950;2023-07-02T18:16:58;20.70;1.00
21331;DHT22;10824;51.632;4.950;2023-07-02T18:20:12;20.60;1.00
21331;DHT22;10824;51.632;4.950;2023-07-02T18:24:05;20.60;1.00
21331;DHT22;10824;51.632;4.950;2023-07-02T18:26:34;20.50;1.00
21331;DHT22;10824;51.632;4.950;2023-07-02T18:29:02;20.30;1.00
21331;DHT22;10824;51.632;4.950;2023-07-02T18:31:40;20.30;1.00
21331;DHT22;10824;51.632;4.950;2023-07-02T18:34:14;20.10;1.00
21331;DHT22;10824;51.632;4.950;2023-07-02T18:36:42;20.00;1.00
21331;DHT22;10824;51.632;4.950;2023-07-02T18:39:30;20.00;1.00
21331;DHT22;10824;51.632;4.950;2023-07-02T18:42:08;20.20;1.00
21331;DHT22;10824;51.632;4.950;2023-07-02T18:44:45;20.20;1.00
21331;DHT22;10824;51.632;4.950;2023-07-02T18:47:15;20.10;1.00
21331;DHT22;10824;51.632;4.950;2023-07-02T18:49:52;20.20;1.00
21331;DHT22;10824;51.632;4.950;2023-07-02T18:52:29;20.20;1.00
21331;DHT22;10824;51.632;4.950;2023-07-02T18:55:00;20.00;1.00
21331;DHT22;10824;51.632;4.950;2023-07-02T18:57:34;20.00;1.00
21331;DHT22;10824;51.632;4.950;2023-07-02T19:00:08;19.80;1.00
21331;DHT22;10824;51.632;4.950;2023-07-02T19:02:39;20.00;1.00
21331;DHT22;10824;51.632;4.950;2023-07-02T19:05:21;19.80;1.00
21331;DHT22;10824;51.632;4.950;2023-07-02T19:08:05;19.60;1.00
21331;DHT22;10824;51.632;4.950;2023-07-02T19:11:17;19.40;1.00
21331;DHT22;10824;51.632;4.950;2023-07-02T19:14:35;19.50;1.00
21331;DHT22;10824;51.632;4.950;2023-07-02T19:20:13;19.40;1.00
21331;DHT22;10824;51.632;4.950;2023-07-02T19:22:55;19.40;1.00
21331;DHT22;10824;51.632;4.950;2023-07-02T19:25:28;19.30;1.00
21331;DHT22;10824;51.632;4.950;2023-07-02T19:28:46;19.20;1.00
21331;DHT22;10824;51.632;4.950;2023-07-02T19:31:39;19.20;1.00
21331;DHT22;10824;51.632;4.950;2023-07-02T19:34:29;19.30;1.00
21331;DHT22;10824;51.632;4.950;2023-07-02T19:37:32;19.20;1.00
21331;DHT22;10824;51.632;4.950;2023-07-02T19:41:00;19.20;1.00
21331;DHT22;10824;51.632;4.950;2023-07-02T19:43:37;19.20;1.00
21331;DHT22;10824;51.632;4.950;2023-07-02T19:46:24;19.20;1.00
21331;DHT22;10824;51.632;4.950;2023-07-02T19:49:01;19.20;1.00
21331;DHT22;10824;51.632;4.950;2023-07-02T19:51:53;19.10;1.00
21331;DHT22;10824;51.632;4.950;2023-07-02T19:54:46;19.10;1.00